»·PEaware :: WAT169 KLAS-KSAN

WAT169 :: KLAS-KSAN

FLIGHT INFORMATION

Flight Status: Arrived
Operator:
Walker Air Transport
More flights by this operator :: More flights under this callsign
Pilot: Marty P. (27464)
Aircraft: BOEING 737-800
(B738)
More flights by this aircraft type
Origin: KLAS McCarran Intl
United States
Destination: KSAN San Diego Intl-Lindbergh
United States
More flights between these airports :: More routes between these airports
Route: BOACH8 LVELL LUCKI1
File this flight plan on PilotEdge
Remarks:
Altitude:
(Current/Filed)
28,000ft
Speed:
(Current/Filed)
470kts
Departed: 03-May-20 06:19 PM
Arrived: 03-May-20 07:03 PM
Distance/Time
Traveled:
225nm/0:44
Distance/Time
To Go:
Arrived

Flight Plot

Page will automatically refresh every two minutes.

Flight plan parsing failed; only flown route is shown


Map Options




Map Legend


Flown Route
Filed Route
Departure Airport
Arrival Airport
Navaid (VOR, NDB)
Fix

Horizontal Profiles

Position Reports

Time Latitude Longitude Heading Altitude Ground
Speed
03-May-20 17:49 36.081269 -115.146101 270 2191ft 0kts
03-May-20 17:50 36.081269 -115.146101 270 2191ft 0kts
03-May-20 17:51 36.081269 -115.146101 270 2191ft 0kts
03-May-20 17:52 36.081269 -115.146101 270 2191ft 0kts
03-May-20 17:53 36.081269 -115.146101 270 2191ft 0kts
03-May-20 17:54 36.081269 -115.146101 270 2191ft 0kts
03-May-20 17:55 36.081269 -115.146101 270 2191ft 0kts
03-May-20 17:56 36.081269 -115.146101 270 2191ft 0kts
03-May-20 17:57 36.081269 -115.146101 270 2191ft 0kts
03-May-20 17:58 36.081269 -115.146101 270 2191ft 0kts
03-May-20 17:59 36.081269 -115.146101 270 2191ft 0kts
03-May-20 18:00 36.081269 -115.146101 270 2191ft 0kts
03-May-20 18:01 36.081269 -115.146101 270 2191ft 0kts
03-May-20 18:02 36.081269 -115.146101 270 2191ft 0kts
03-May-20 18:03 36.081267 -115.145790 270 2191ft 2kts
03-May-20 18:04 36.081592 -115.145353 166 2191ft 2kts
03-May-20 18:05 36.081695 -115.145404 155 2191ft 0kts
03-May-20 18:06 36.081546 -115.145328 157 2191ft 4kts
03-May-20 18:07 36.079946 -115.144855 179 2191ft 0kts
03-May-20 18:08 36.078301 -115.143691 95 2191ft 15kts
03-May-20 18:09 36.078263 -115.136408 89 2191ft 21kts
03-May-20 18:10 36.078275 -115.129376 89 2191ft 20kts
03-May-20 18:11 36.078114 -115.122534 122 2191ft 6kts
03-May-20 18:12 36.077904 -115.122155 127 2191ft 0kts
03-May-20 18:13 36.077899 -115.122146 127 2191ft 0kts
03-May-20 18:14 36.077869 -115.122098 127 2191ft 0kts
03-May-20 18:15 36.077504 -115.121549 134 2191ft 6kts
03-May-20 18:16 36.077419 -115.121463 144 2191ft 5kts
03-May-20 18:17 36.076452 -115.121700 267 2191ft 0kts
03-May-20 18:18 36.076429 -115.132238 269 2191ft 137kts
03-May-20 18:19 36.076340 -115.198414 270 3949ft 238kts
03-May-20 18:20 36.039865 -115.270607 205 7055ft 278kts
03-May-20 18:21 35.967845 -115.301589 191 7561ft 287kts
03-May-20 18:22 35.893180 -115.310907 189 11261ft 284kts
03-May-20 18:23 35.804401 -115.309284 179 13339ft 338kts
03-May-20 18:24 35.708787 -115.298193 179 15959ft 357kts
03-May-20 18:25 35.606743 -115.297310 187 18190ft 375kts
03-May-20 18:26 35.500333 -115.301760 187 19280ft 393kts
03-May-20 18:27 35.392060 -115.306027 187 21737ft 396kts
03-May-20 18:28 35.280714 -115.310456 187 23566ft 409kts
03-May-20 18:29 35.165330 -115.315004 187 25224ft 422kts
03-May-20 18:30 35.046762 -115.319659 187 26681ft 434kts
03-May-20 18:31 34.925209 -115.324409 187 27868ft 441kts
03-May-20 18:32 34.803737 -115.337618 196 27881ft 447kts
03-May-20 18:33 34.683152 -115.377879 202 27892ft 452kts
03-May-20 18:34 34.564167 -115.427024 204 28064ft 454kts
03-May-20 18:35 34.444631 -115.478437 204 28063ft 460kts
03-May-20 18:36 34.326775 -115.536759 211 28063ft 455kts
03-May-20 18:37 34.214879 -115.607414 207 28062ft 459kts
03-May-20 18:38 34.098574 -115.666181 205 28037ft 460kts
03-May-20 18:39 33.980393 -115.723007 205 28027ft 461kts
03-May-20 18:40 33.861232 -115.780335 206 28028ft 461kts
03-May-20 18:41 33.746823 -115.836228 205 28026ft 420kts
03-May-20 18:42 33.636394 -115.887939 205 28027ft 430kts
03-May-20 18:43 33.532105 -115.947340 222 26270ft 404kts
03-May-20 18:44 33.460505 -116.043827 234 25982ft 390kts
03-May-20 18:45 33.398673 -116.146173 236 23562ft 375kts
03-May-20 18:46 33.335773 -116.242587 223 21110ft 366kts
03-May-20 18:47 33.247000 -116.303470 209 18286ft 369kts
03-May-20 18:48 33.156211 -116.356376 209 16928ft 378kts
03-May-20 18:49 33.063800 -116.410294 209 14507ft 357kts
03-May-20 18:50 32.984575 -116.465053 222 13486ft 313kts
03-May-20 18:51 32.918836 -116.531749 222 11570ft 310kts
03-May-20 18:52 32.857262 -116.593794 223 10733ft 279kts
03-May-20 18:53 32.798056 -116.653387 222 9202ft 282kts
03-May-20 18:54 32.751029 -116.725547 242 7693ft 269kts
03-May-20 18:55 32.714934 -116.802428 242 6274ft 268kts
03-May-20 18:56 32.687068 -116.883282 251 4992ft 262kts
03-May-20 18:57 32.678477 -116.962755 285 3769ft 229kts
03-May-20 18:58 32.695129 -117.031797 287 2738ft 212kts
03-May-20 18:59 32.709763 -117.091827 287 1596ft 152kts
03-May-20 19:00 32.721672 -117.140682 286 706ft 155kts
03-May-20 19:01 32.733367 -117.189465 286 28ft 133kts
03-May-20 19:02 32.735736 -117.201707 185 27ft 3kts
03-May-20 19:03 32.734412 -117.201252 167 27ft 6kts

Navigation Log

Ident Type
Flight plan parsing failed, navigation log unavailable